sensor_id;sensor_type;location;lat;lon;timestamp;temperature;humidity
41882;DHT22;27562;47.524;12.404;2022-09-21T00:00:32;7.20;99.90
41882;DHT22;27562;47.524;12.404;2022-09-21T00:02:57;7.30;99.90
41882;DHT22;27562;47.524;12.404;2022-09-21T00:05:24;7.30;99.90
41882;DHT22;27562;47.524;12.404;2022-09-21T00:07:50;7.30;99.90
41882;DHT22;27562;47.524;12.404;2022-09-21T00:10:17;7.20;99.90
41882;DHT22;27562;47.524;12.404;2022-09-21T00:12:46;7.10;99.90
41882;DHT22;27562;47.524;12.404;2022-09-21T00:15:14;7.00;99.90
41882;DHT22;27562;47.524;12.404;2022-09-21T00:17:41;7.00;99.90
41882;DHT22;27562;47.524;12.404;2022-09-21T00:20:07;7.00;99.90
41882;DHT22;27562;47.524;12.404;2022-09-21T00:22:33;6.90;99.90
41882;DHT22;27562;47.524;12.404;2022-09-21T00:24:59;6.90;99.90
41882;DHT22;27562;47.524;12.404;2022-09-21T00:27:27;6.90;99.90
41882;DHT22;27562;47.524;12.404;2022-09-21T00:30:01;6.90;99.90
41882;DHT22;27562;47.524;12.404;2022-09-21T00:32:32;7.00;99.90
41882;DHT22;27562;47.524;12.404;2022-09-21T00:34:59;7.00;99.90
41882;DHT22;27562;47.524;12.404;2022-09-21T00:37:26;7.10;99.90
41882;DHT22;27562;47.524;12.404;2022-09-21T00:39:52;7.10;99.90
41882;DHT22;27562;47.524;12.404;2022-09-21T00:42:21;7.10;99.90
41882;DHT22;27562;47.524;12.404;2022-09-21T00:44:47;7.20;99.90
41882;DHT22;27562;47.524;12.404;2022-09-21T00:47:16;7.20;99.90
41882;DHT22;27562;47.524;12.404;2022-09-21T00:49:46;7.20;99.90
41882;DHT22;27562;47.524;12.404;2022-09-21T00:52:15;7.20;99.90
41882;DHT22;27562;47.524;12.404;2022-09-21T00:54:51;7.20;99.90
41882;DHT22;27562;47.524;12.404;2022-09-21T00:57:20;7.10;99.90
41882;DHT22;27562;47.524;12.404;2022-09-21T00:59:48;7.10;99.90
41882;DHT22;27562;47.524;12.404;2022-09-21T01:02:15;7.10;99.90
41882;DHT22;27562;47.524;12.404;2022-09-21T01:04:41;7.10;99.90
41882;DHT22;27562;47.524;12.404;2022-09-21T01:07:14;7.10;99.90
41882;DHT22;27562;47.524;12.404;2022-09-21T01:09:42;7.00;99.90
41882;DHT22;27562;47.524;12.404;2022-09-21T01:23:49;6.90;99.90
41882;DHT22;27562;47.524;12.404;2022-09-21T01:32:07;6.90;99.90
41882;DHT22;27562;47.524;12.404;2022-09-21T01:34:42;6.90;99.90
41882;DHT22;27562;47.524;12.404;2022-09-21T01:37:18;6.80;99.90
41882;DHT22;27562;47.524;12.404;2022-09-21T01:39:47;6.80;99.90
41882;DHT22;27562;47.524;12.404;2022-09-21T01:42:16;6.90;99.90
41882;DHT22;27562;47.524;12.404;2022-09-21T01:44:45;6.90;99.90
41882;DHT22;27562;47.524;12.404;2022-09-21T01:47:12;6.90;99.90
41882;DHT22;27562;47.524;12.404;2022-09-21T01:49:45;6.90;99.90
41882;DHT22;27562;47.524;12.404;2022-09-21T01:52:19;6.80;99.90
41882;DHT22;27562;47.524;12.404;2022-09-21T01:54:50;6.80;99.90
41882;DHT22;27562;47.524;12.404;2022-09-21T01:57:25;6.70;99.90
41882;DHT22;27562;47.524;12.404;2022-09-21T01:59:58;6.70;99.90
41882;DHT22;27562;47.524;12.404;2022-09-21T02:05:14;6.80;99.90
41882;DHT22;27562;47.524;12.404;2022-09-21T02:07:42;6.80;99.90
41882;DHT22;27562;47.524;12.404;2022-09-21T02:10:12;6.80;99.90
41882;DHT22;27562;47.524;12.404;2022-09-21T02:12:39;6.90;99.90
41882;DHT22;27562;47.524;12.404;2022-09-21T02:15:06;6.80;99.90
41882;DHT22;27562;47.524;12.404;2022-09-21T02:18:06;6.80;99.90
41882;DHT22;27562;47.524;12.404;2022-09-21T02:20:37;6.80;99.90
41882;DHT22;27562;47.524;12.404;2022-09-21T02:28:17;6.90;99.90
41882;DHT22;27562;47.524;12.404;2022-09-21T02:33:47;6.90;99.90
41882;DHT22;27562;47.524;12.404;2022-09-21T02:36:30;6.90;99.90
41882;DHT22;27562;47.524;12.404;2022-09-21T02:39:16;6.90;99.90
41882;DHT22;27562;47.524;12.404;2022-09-21T02:44:46;6.90;99.90
41882;DHT22;27562;47.524;12.404;2022-09-21T02:47:21;7.00;99.90
41882;DHT22;27562;47.524;12.404;2022-09-21T02:49:52;6.90;99.90
41882;DHT22;27562;47.524;12.404;2022-09-21T02:52:19;6.90;99.90
41882;DHT22;27562;47.524;12.404;2022-09-21T02:54:49;6.90;99.90
41882;DHT22;27562;47.524;12.404;2022-09-21T02:57:19;6.90;99.90
41882;DHT22;27562;47.524;12.404;2022-09-21T02:59:46;7.00;99.90
41882;DHT22;27562;47.524;12.404;2022-09-21T03:02:12;7.00;99.90
41882;DHT22;27562;47.524;12.404;2022-09-21T03:04:43;7.00;99.90
41882;DHT22;27562;47.524;12.404;2022-09-21T03:07:15;7.00;99.90
41882;DHT22;27562;47.524;12.404;2022-09-21T03:09:41;7.00;99.90
41882;DHT22;27562;47.524;12.404;2022-09-21T03:12:07;6.90;99.90
41882;DHT22;27562;47.524;12.404;2022-09-21T03:14:33;7.00;99.90
41882;DHT22;27562;47.524;12.404;2022-09-21T03:16:59;6.90;99.90
41882;DHT22;27562;47.524;12.404;2022-09-21T03:19:25;6.90;99.90
41882;DHT22;27562;47.524;12.404;2022-09-21T03:21:51;6.90;99.90
41882;DHT22;27562;47.524;12.404;2022-09-21T03:24:19;6.90;99.90
41882;DHT22;27562;47.524;12.404;2022-09-21T03:27:05;6.90;99.90
41882;DHT22;27562;47.524;12.404;2022-09-21T03:29:30;6.80;99.90
41882;DHT22;27562;47.524;12.404;2022-09-21T03:31:56;6.80;99.90
41882;DHT22;27562;47.524;12.404;2022-09-21T03:34:22;6.80;99.90
41882;DHT22;27562;47.524;12.404;2022-09-21T03:36:48;6.70;99.90
41882;DHT22;27562;47.524;12.404;2022-09-21T03:39:13;6.70;99.90
41882;DHT22;27562;47.524;12.404;2022-09-21T03:41:39;6.70;99.90
41882;DHT22;27562;47.524;12.404;2022-09-21T03:44:05;6.70;99.90
41882;DHT22;27562;47.524;12.404;2022-09-21T03:46:31;6.60;99.90
41882;DHT22;27562;47.524;12.404;2022-09-21T03:49:00;6.60;99.90
41882;DHT22;27562;47.524;12.404;2022-09-21T03:51:26;6.60;99.90
41882;DHT22;27562;47.524;12.404;2022-09-21T03:53:52;6.50;99.90
41882;DHT22;27562;47.524;12.404;2022-09-21T03:56:18;6.50;99.90
41882;DHT22;27562;47.524;12.404;2022-09-21T03:58:43;6.50;99.90
41882;DHT22;27562;47.524;12.404;2022-09-21T04:01:09;6.40;99.90
41882;DHT22;27562;47.524;12.404;2022-09-21T04:03:35;6.40;99.90
41882;DHT22;27562;47.524;12.404;2022-09-21T04:06:08;6.40;99.90
41882;DHT22;27562;47.524;12.404;2022-09-21T04:08:34;6.40;99.90
41882;DHT22;27562;47.524;12.404;2022-09-21T04:11:00;6.40;99.90
41882;DHT22;27562;47.524;12.404;2022-09-21T04:13:25;6.50;99.90
41882;DHT22;27562;47.524;12.404;2022-09-21T04:15:51;6.50;99.90
41882;DHT22;27562;47.524;12.404;2022-09-21T04:18:17;6.50;99.90
41882;DHT22;27562;47.524;12.404;2022-09-21T04:20:43;6.60;99.90
41882;DHT22;27562;47.524;12.404;2022-09-21T04:23:08;6.60;99.90
41882;DHT22;27562;47.524;12.404;2022-09-21T04:25:34;6.70;99.90
41882;DHT22;27562;47.524;12.404;2022-09-21T04:28:00;6.70;99.90
41882;DHT22;27562;47.524;12.404;2022-09-21T04:30:26;6.70;99.90
41882;DHT22;27562;47.524;12.404;2022-09-21T04:32:52;6.80;99.90
41882;DHT22;27562;47.524;12.404;2022-09-21T04:35:17;6.70;99.90
41882;DHT22;27562;47.524;12.404;2022-09-21T04:37:46;6.70;99.90
41882;DHT22;27562;47.524;12.404;2022-09-21T04:40:11;6.70;99.90
41882;DHT22;27562;47.524;12.404;2022-09-21T04:42:37;6.80;99.90
41882;DHT22;27562;47.524;12.404;2022-09-21T04:45:03;6.70;99.90
41882;DHT22;27562;47.524;12.404;2022-09-21T04:47:30;6.80;99.90
41882;DHT22;27562;47.524;12.404;2022-09-21T04:49:56;6.80;99.90
41882;DHT22;27562;47.524;12.404;2022-09-21T04:52:21;6.70;99.90
41882;DHT22;27562;47.524;12.404;2022-09-21T04:54:47;6.70;99.90
41882;DHT22;27562;47.524;12.404;2022-09-21T04:57:13;6.60;99.90
41882;DHT22;27562;47.524;12.404;2022-09-21T04:59:39;6.60;99.90
41882;DHT22;27562;47.524;12.404;2022-09-21T05:02:05;6.50;99.90
41882;DHT22;27562;47.524;12.404;2022-09-21T05:04:30;6.40;99.90
41882;DHT22;27562;47.524;12.404;2022-09-21T05:06:56;6.40;99.90
41882;DHT22;27562;47.524;12.404;2022-09-21T05:09:23;6.40;99.90
41882;DHT22;27562;47.524;12.404;2022-09-21T05:12:07;6.30;99.90
41882;DHT22;27562;47.524;12.404;2022-09-21T05:14:34;6.30;99.90
41882;DHT22;27562;47.524;12.404;2022-09-21T05:17:00;6.20;99.90
41882;DHT22;27562;47.524;12.404;2022-09-21T05:19:26;6.20;99.90
41882;DHT22;27562;47.524;12.404;2022-09-21T05:21:52;6.30;99.90
41882;DHT22;27562;47.524;12.404;2022-09-21T05:24:17;6.30;99.90
41882;DHT22;27562;47.524;12.404;2022-09-21T05:26:43;6.30;99.90
41882;DHT22;27562;47.524;12.404;2022-09-21T05:29:09;6.30;99.90
41882;DHT22;27562;47.524;12.404;2022-09-21T05:31:47;6.20;99.90
41882;DHT22;27562;47.524;12.404;2022-09-21T05:37:26;6.10;99.90
41882;DHT22;27562;47.524;12.404;2022-09-21T05:39:49;6.10;99.90
41882;DHT22;27562;47.524;12.404;2022-09-21T05:42:15;6.20;99.90
41882;DHT22;27562;47.524;12.404;2022-09-21T05:44:41;6.20;99.90
41882;DHT22;27562;47.524;12.404;2022-09-21T05:55:55;5.90;99.90
41882;DHT22;27562;47.524;12.404;2022-09-21T05:58:42;5.80;99.90
41882;DHT22;27562;47.524;12.404;2022-09-21T06:04:14;5.70;99.90
41882;DHT22;27562;47.524;12.404;2022-09-21T06:06:41;5.70;99.90
41882;DHT22;27562;47.524;12.404;2022-09-21T06:09:07;5.70;99.90
41882;DHT22;27562;47.524;12.404;2022-09-21T06:11:32;5.70;99.90
41882;DHT22;27562;47.524;12.404;2022-09-21T06:14:00;5.70;99.90
41882;DHT22;27562;47.524;12.404;2022-09-21T06:16:26;5.70;99.90
41882;DHT22;27562;47.524;12.404;2022-09-21T06:18:52;5.70;99.90
41882;DHT22;27562;47.524;12.404;2022-09-21T06:21:17;5.70;99.90
41882;DHT22;27562;47.524;12.404;2022-09-21T06:23:43;5.80;99.90
41882;DHT22;27562;47.524;12.404;2022-09-21T06:26:08;5.90;99.90
41882;DHT22;27562;47.524;12.404;2022-09-21T06:28:34;6.00;99.90
41882;DHT22;27562;47.524;12.404;2022-09-21T06:31:00;6.00;99.90
41882;DHT22;27562;47.524;12.404;2022-09-21T06:33:25;6.10;99.90
41882;DHT22;27562;47.524;12.404;2022-09-21T06:35:52;6.20;99.90
41882;DHT22;27562;47.524;12.404;2022-09-21T06:38:18;6.20;99.90
41882;DHT22;27562;47.524;12.404;2022-09-21T06:40:44;6.30;99.90
41882;DHT22;27562;47.524;12.404;2022-09-21T06:43:09;6.40;99.90
41882;DHT22;27562;47.524;12.404;2022-09-21T06:45:35;6.40;99.90
41882;DHT22;27562;47.524;12.404;2022-09-21T06:48:01;6.50;99.90
41882;DHT22;27562;47.524;12.404;2022-09-21T06:50:27;6.60;99.90
41882;DHT22;27562;47.524;12.404;2022-09-21T06:52:53;6.70;99.90
41882;DHT22;27562;47.524;12.404;2022-09-21T06:55:19;6.70;99.90
41882;DHT22;27562;47.524;12.404;2022-09-21T06:57:45;6.80;99.90
41882;DHT22;27562;47.524;12.404;2022-09-21T07:00:11;6.90;99.90
41882;DHT22;27562;47.524;12.404;2022-09-21T07:02:41;7.00;99.90
41882;DHT22;27562;47.524;12.404;2022-09-21T07:05:07;7.10;99.90
41882;DHT22;27562;47.524;12.404;2022-09-21T07:07:32;7.10;99.90
41882;DHT22;27562;47.524;12.404;2022-09-21T07:09:58;7.20;99.90
41882;DHT22;27562;47.524;12.404;2022-09-21T07:12:29;7.30;99.90
41882;DHT22;27562;47.524;12.404;2022-09-21T07:14:59;7.30;99.90
41882;DHT22;27562;47.524;12.404;2022-09-21T07:17:24;7.40;99.90
41882;DHT22;27562;47.524;12.404;2022-09-21T07:19:51;7.50;99.90
41882;DHT22;27562;47.524;12.404;2022-09-21T07:22:17;7.60;99.90
41882;DHT22;27562;47.524;12.404;2022-09-21T07:24:43;7.70;99.90
41882;DHT22;27562;47.524;12.404;2022-09-21T07:27:08;7.80;99.90
41882;DHT22;27562;47.524;12.404;2022-09-21T07:29:34;7.80;99.90
41882;DHT22;27562;47.524;12.404;2022-09-21T07:32:00;7.90;99.90
41882;DHT22;27562;47.524;12.404;2022-09-21T07:34:25;7.90;99.90
41882;DHT22;27562;47.524;12.404;2022-09-21T07:36:51;7.90;99.90
41882;DHT22;27562;47.524;12.404;2022-09-21T07:39:17;7.90;99.90
41882;DHT22;27562;47.524;12.404;2022-09-21T07:41:43;7.80;99.90
41882;DHT22;27562;47.524;12.404;2022-09-21T07:44:09;7.80;99.90
41882;DHT22;27562;47.524;12.404;2022-09-21T07:46:34;7.80;99.90
41882;DHT22;27562;47.524;12.404;2022-09-21T07:49:01;7.90;99.90
41882;DHT22;27562;47.524;12.404;2022-09-21T07:51:28;8.00;99.90
41882;DHT22;27562;47.524;12.404;2022-09-21T07:53:55;8.00;99.90
41882;DHT22;27562;47.524;12.404;2022-09-21T07:56:24;8.20;99.90
41882;DHT22;27562;47.524;12.404;2022-09-21T07:58:50;8.30;99.90
41882;DHT22;27562;47.524;12.404;2022-09-21T08:01:33;8.40;99.90
41882;DHT22;27562;47.524;12.404;2022-09-21T08:04:00;8.50;99.90
41882;DHT22;27562;47.524;12.404;2022-09-21T08:06:28;8.60;99.90
41882;DHT22;27562;47.524;12.404;2022-09-21T08:08:55;8.80;99.90
41882;DHT22;27562;47.524;12.404;2022-09-21T08:11:21;8.80;99.90
41882;DHT22;27562;47.524;12.404;2022-09-21T08:13:51;8.90;99.90
41882;DHT22;27562;47.524;12.404;2022-09-21T08:16:17;9.00;99.90
41882;DHT22;27562;47.524;12.404;2022-09-21T08:18:43;9.00;99.90
41882;DHT22;27562;47.524;12.404;2022-09-21T08:21:09;9.10;99.90
41882;DHT22;27562;47.524;12.404;2022-09-21T08:23:35;9.10;99.90
41882;DHT22;27562;47.524;12.404;2022-09-21T08:26:06;9.20;99.90
41882;DHT22;27562;47.524;12.404;2022-09-21T08:28:33;9.30;99.90
41882;DHT22;27562;47.524;12.404;2022-09-21T08:31:01;9.40;99.90
41882;DHT22;27562;47.524;12.404;2022-09-21T08:33:28;9.50;99.90
41882;DHT22;27562;47.524;12.404;2022-09-21T08:35:55;9.50;99.90
41882;DHT22;27562;47.524;12.404;2022-09-21T08:38:21;9.60;99.90
41882;DHT22;27562;47.524;12.404;2022-09-21T08:40:48;9.70;99.90
41882;DHT22;27562;47.524;12.404;2022-09-21T08:43:36;9.80;99.90
41882;DHT22;27562;47.524;12.404;2022-09-21T08:46:17;10.00;99.90
41882;DHT22;27562;47.524;12.404;2022-09-21T08:48:57;10.10;99.90
41882;DHT22;27562;47.524;12.404;2022-09-21T08:51:28;10.30;99.90
41882;DHT22;27562;47.524;12.404;2022-09-21T08:54:00;10.40;99.90
41882;DHT22;27562;47.524;12.404;2022-09-21T08:56:28;10.60;99.90
41882;DHT22;27562;47.524;12.404;2022-09-21T08:58:55;10.70;99.90
41882;DHT22;27562;47.524;12.404;2022-09-21T09:01:38;10.70;99.90
41882;DHT22;27562;47.524;12.404;2022-09-21T09:18:08;11.50;99.90
41882;DHT22;27562;47.524;12.404;2022-09-21T09:20:44;11.60;99.90
41882;DHT22;27562;47.524;12.404;2022-09-21T09:23:30;11.60;99.90
41882;DHT22;27562;47.524;12.404;2022-09-21T09:26:21;11.70;99.90
41882;DHT22;27562;47.524;12.404;2022-09-21T09:31:40;11.90;99.90
41882;DHT22;27562;47.524;12.404;2022-09-21T09:34:23;12.00;99.90
41882;DHT22;27562;47.524;12.404;2022-09-21T09:37:11;12.10;99.90
41882;DHT22;27562;47.524;12.404;2022-09-21T09:39:37;12.10;99.90
41882;DHT22;27562;47.524;12.404;2022-09-21T09:42:13;12.20;99.90
41882;DHT22;27562;47.524;12.404;2022-09-21T09:50:27;12.70;99.90
41882;DHT22;27562;47.524;12.404;2022-09-21T09:53:03;12.80;99.90
41882;DHT22;27562;47.524;12.404;2022-09-21T09:55:38;12.90;99.80
41882;DHT22;27562;47.524;12.404;2022-09-21T10:00:57;13.10;99.90
41882;DHT22;27562;47.524;12.404;2022-09-21T10:03:24;13.30;99.90
41882;DHT22;27562;47.524;12.404;2022-09-21T10:05:51;13.40;99.50
41882;DHT22;27562;47.524;12.404;2022-09-21T10:11:01;13.60;99.80
41882;DHT22;27562;47.524;12.404;2022-09-21T10:13:30;13.60;97.90
41882;DHT22;27562;47.524;12.404;2022-09-21T10:16:37;13.70;98.10
41882;DHT22;27562;47.524;12.404;2022-09-21T10:18:58;13.80;96.60
41882;DHT22;27562;47.524;12.404;2022-09-21T10:24:00;13.90;96.00
41882;DHT22;27562;47.524;12.404;2022-09-21T10:26:48;14.00;95.80
41882;DHT22;27562;47.524;12.404;2022-09-21T10:32:19;14.10;93.40
41882;DHT22;27562;47.524;12.404;2022-09-21T10:37:36;14.10;95.60
41882;DHT22;27562;47.524;12.404;2022-09-21T10:40:03;14.20;96.90
41882;DHT22;27562;47.524;12.404;2022-09-21T10:42:37;14.20;96.00
41882;DHT22;27562;47.524;12.404;2022-09-21T10:45:14;14.10;96.30
41882;DHT22;27562;47.524;12.404;2022-09-21T10:52:45;14.00;95.90
41882;DHT22;27562;47.524;12.404;2022-09-21T10:55:19;13.90;95.30
41882;DHT22;27562;47.524;12.404;2022-09-21T10:57:47;13.90;95.10
41882;DHT22;27562;47.524;12.404;2022-09-21T11:02:58;13.80;96.10
41882;DHT22;27562;47.524;12.404;2022-09-21T11:05:37;13.90;95.20
41882;DHT22;27562;47.524;12.404;2022-09-21T11:08:19;13.90;95.30
41882;DHT22;27562;47.524;12.404;2022-09-21T11:11:01;14.00;96.30
41882;DHT22;27562;47.524;12.404;2022-09-21T11:13:35;14.20;94.60
41882;DHT22;27562;47.524;12.404;2022-09-21T11:16:33;14.40;95.00
41882;DHT22;27562;47.524;12.404;2022-09-21T11:19:28;14.50;94.90
41882;DHT22;27562;47.524;12.404;2022-09-21T11:27:38;14.60;90.40
41882;DHT22;27562;47.524;12.404;2022-09-21T11:30:12;14.50;86.20
41882;DHT22;27562;47.524;12.404;2022-09-21T11:38:32;14.70;77.80
41882;DHT22;27562;47.524;12.404;2022-09-21T11:52:09;15.00;88.60
41882;DHT22;27562;47.524;12.404;2022-09-21T12:00:41;15.10;86.50
41882;DHT22;27562;47.524;12.404;2022-09-21T12:08:57;15.10;87.00
41882;DHT22;27562;47.524;12.404;2022-09-21T12:11:50;15.10;82.80
41882;DHT22;27562;47.524;12.404;2022-09-21T12:17:06;15.00;80.60
41882;DHT22;27562;47.524;12.404;2022-09-21T12:22:37;15.00;80.10
41882;DHT22;27562;47.524;12.404;2022-09-21T12:25:11;15.10;79.10
41882;DHT22;27562;47.524;12.404;2022-09-21T12:27:40;15.20;81.20
41882;DHT22;27562;47.524;12.404;2022-09-21T12:30:13;15.20;76.20
41882;DHT22;27562;47.524;12.404;2022-09-21T12:37:58;15.30;77.50
41882;DHT22;27562;47.524;12.404;2022-09-21T12:40:43;15.40;77.80
41882;DHT22;27562;47.524;12.404;2022-09-21T12:43:31;15.50;79.40
41882;DHT22;27562;47.524;12.404;2022-09-21T12:46:28;15.60;76.60
41882;DHT22;27562;47.524;12.404;2022-09-21T12:48:55;15.60;76.60
41882;DHT22;27562;47.524;12.404;2022-09-21T12:51:28;15.70;75.80
41882;DHT22;27562;47.524;12.404;2022-09-21T12:53:59;15.60;73.30
41882;DHT22;27562;47.524;12.404;2022-09-21T12:59:45;15.70;73.50
41882;DHT22;27562;47.524;12.404;2022-09-21T13:02:31;15.70;71.70
41882;DHT22;27562;47.524;12.404;2022-09-21T13:05:21;15.70;70.00
41882;DHT22;27562;47.524;12.404;2022-09-21T13:15:49;15.80;70.90
41882;DHT22;27562;47.524;12.404;2022-09-21T13:18:22;15.80;70.30
41882;DHT22;27562;47.524;12.404;2022-09-21T13:20:48;16.00;68.80
41882;DHT22;27562;47.524;12.404;2022-09-21T13:23:58;16.00;67.30
41882;DHT22;27562;47.524;12.404;2022-09-21T13:34:39;16.10;69.40
41882;DHT22;27562;47.524;12.404;2022-09-21T13:37:12;16.10;71.90
41882;DHT22;27562;47.524;12.404;2022-09-21T13:44:58;16.10;71.90
41882;DHT22;27562;47.524;12.404;2022-09-21T13:49:59;16.10;73.30
41882;DHT22;27562;47.524;12.404;2022-09-21T13:52:43;16.10;72.20
41882;DHT22;27562;47.524;12.404;2022-09-21T13:57:55;16.10;71.80
41882;DHT22;27562;47.524;12.404;2022-09-21T14:05:38;16.20;69.90
41882;DHT22;27562;47.524;12.404;2022-09-21T14:10:48;16.20;70.80
41882;DHT22;27562;47.524;12.404;2022-09-21T14:13:35;16.20;71.70
41882;DHT22;27562;47.524;12.404;2022-09-21T14:19:03;16.10;67.50
41882;DHT22;27562;47.524;12.404;2022-09-21T14:21:30;16.10;70.30
41882;DHT22;27562;47.524;12.404;2022-09-21T14:26:45;16.10;70.00
41882;DHT22;27562;47.524;12.404;2022-09-21T14:29:42;16.20;70.80
41882;DHT22;27562;47.524;12.404;2022-09-21T14:32:21;16.20;70.20
41882;DHT22;27562;47.524;12.404;2022-09-21T14:35:05;16.10;73.10
41882;DHT22;27562;47.524;12.404;2022-09-21T14:37:40;16.10;69.80
41882;DHT22;27562;47.524;12.404;2022-09-21T14:40:20;16.10;72.70
41882;DHT22;27562;47.524;12.404;2022-09-21T14:42:49;16.00;70.50
41882;DHT22;27562;47.524;12.404;2022-09-21T14:45:17;15.80;71.20
41882;DHT22;27562;47.524;12.404;2022-09-21T14:48:27;15.80;73.30
41882;DHT22;27562;47.524;12.404;2022-09-21T14:50:58;15.60;71.10
41882;DHT22;27562;47.524;12.404;2022-09-21T14:53:50;15.40;72.90
41882;DHT22;27562;47.524;12.404;2022-09-21T15:02:22;15.00;74.20
41882;DHT22;27562;47.524;12.404;2022-09-21T15:05:18;15.00;75.90
41882;DHT22;27562;47.524;12.404;2022-09-21T15:08:01;15.10;75.20
41882;DHT22;27562;47.524;12.404;2022-09-21T15:16:44;15.20;71.50
41882;DHT22;27562;47.524;12.404;2022-09-21T15:19:22;15.10;73.20
41882;DHT22;27562;47.524;12.404;2022-09-21T15:21:53;14.80;74.70
41882;DHT22;27562;47.524;12.404;2022-09-21T15:24:31;14.60;75.40
41882;DHT22;27562;47.524;12.404;2022-09-21T15:27:16;14.50;76.80
41882;DHT22;27562;47.524;12.404;2022-09-21T15:29:47;14.50;76.60
41882;DHT22;27562;47.524;12.404;2022-09-21T15:34:59;14.40;75.70
41882;DHT22;27562;47.524;12.404;2022-09-21T15:37:28;14.30;77.10
41882;DHT22;27562;47.524;12.404;2022-09-21T15:40:00;14.30;78.20
41882;DHT22;27562;47.524;12.404;2022-09-21T15:42:26;14.30;78.40
41882;DHT22;27562;47.524;12.404;2022-09-21T15:45:18;14.20;79.50
41882;DHT22;27562;47.524;12.404;2022-09-21T15:47:44;14.10;80.00
41882;DHT22;27562;47.524;12.404;2022-09-21T15:50:16;14.00;80.80
41882;DHT22;27562;47.524;12.404;2022-09-21T15:52:49;13.90;80.80
41882;DHT22;27562;47.524;12.404;2022-09-21T15:55:19;13.90;80.80
41882;DHT22;27562;47.524;12.404;2022-09-21T15:57:53;13.80;82.20
41882;DHT22;27562;47.524;12.404;2022-09-21T16:03:38;13.90;81.80
41882;DHT22;27562;47.524;12.404;2022-09-21T16:05:46;13.80;82.90
41882;DHT22;27562;47.524;12.404;2022-09-21T16:08:39;13.80;82.00
41882;DHT22;27562;47.524;12.404;2022-09-21T16:11:19;13.70;81.60
41882;DHT22;27562;47.524;12.404;2022-09-21T16:14:25;13.60;82.90
41882;DHT22;27562;47.524;12.404;2022-09-21T16:19:41;13.40;83.50
41882;DHT22;27562;47.524;12.404;2022-09-21T16:22:19;13.40;84.20
41882;DHT22;27562;47.524;12.404;2022-09-21T16:24:51;13.40;84.60
41882;DHT22;27562;47.524;12.404;2022-09-21T16:27:18;13.40;83.10
41882;DHT22;27562;47.524;12.404;2022-09-21T16:29:46;13.30;84.30
41882;DHT22;27562;47.524;12.404;2022-09-21T16:34:50;13.00;84.80
41882;DHT22;27562;47.524;12.404;2022-09-21T16:39:52;12.70;86.60
41882;DHT22;27562;47.524;12.404;2022-09-21T16:42:22;12.70;86.30
41882;DHT22;27562;47.524;12.404;2022-09-21T16:44:50;12.50;87.40
41882;DHT22;27562;47.524;12.404;2022-09-21T16:47:26;12.40;87.40
41882;DHT22;27562;47.524;12.404;2022-09-21T16:49:57;12.30;88.30
41882;DHT22;27562;47.524;12.404;2022-09-21T16:52:28;12.30;88.70
41882;DHT22;27562;47.524;12.404;2022-09-21T16:54:55;12.30;89.60
41882;DHT22;27562;47.524;12.404;2022-09-21T16:57:22;12.30;89.00
41882;DHT22;27562;47.524;12.404;2022-09-21T16:59:48;12.30;89.60
41882;DHT22;27562;47.524;12.404;2022-09-21T17:02:15;12.20;90.30
41882;DHT22;27562;47.524;12.404;2022-09-21T17:04:42;12.10;90.00
41882;DHT22;27562;47.524;12.404;2022-09-21T17:07:12;12.00;90.10
41882;DHT22;27562;47.524;12.404;2022-09-21T17:09:43;12.00;90.40
41882;DHT22;27562;47.524;12.404;2022-09-21T17:12:15;11.90;90.80
41882;DHT22;27562;47.524;12.404;2022-09-21T17:14:42;11.90;90.90
41882;DHT22;27562;47.524;12.404;2022-09-21T17:19:37;11.80;91.20
41882;DHT22;27562;47.524;12.404;2022-09-21T17:22:05;11.80;91.20
41882;DHT22;27562;47.524;12.404;2022-09-21T17:24:31;11.80;91.80
41882;DHT22;27562;47.524;12.404;2022-09-21T17:26:57;11.80;91.50
41882;DHT22;27562;47.524;12.404;2022-09-21T17:29:26;11.80;91.90
41882;DHT22;27562;47.524;12.404;2022-09-21T17:31:57;11.80;92.20
41882;DHT22;27562;47.524;12.404;2022-09-21T17:34:25;11.90;92.10
41882;DHT22;27562;47.524;12.404;2022-09-21T17:36:52;11.90;92.00
41882;DHT22;27562;47.524;12.404;2022-09-21T17:39:19;12.00;92.10
41882;DHT22;27562;47.524;12.404;2022-09-21T17:41:58;12.00;92.20
41882;DHT22;27562;47.524;12.404;2022-09-21T17:47:27;12.00;92.30
41882;DHT22;27562;47.524;12.404;2022-09-21T17:50:39;12.00;92.40
41882;DHT22;27562;47.524;12.404;2022-09-21T17:52:41;12.00;92.50
41882;DHT22;27562;47.524;12.404;2022-09-21T17:55:26;11.90;93.50
41882;DHT22;27562;47.524;12.404;2022-09-21T18:02:58;11.60;95.50
41882;DHT22;27562;47.524;12.404;2022-09-21T18:05:27;11.40;96.20
41882;DHT22;27562;47.524;12.404;2022-09-21T18:07:53;11.30;96.40
41882;DHT22;27562;47.524;12.404;2022-09-21T18:10:20;11.20;96.90
41882;DHT22;27562;47.524;12.404;2022-09-21T18:15:26;11.00;97.40
41882;DHT22;27562;47.524;12.404;2022-09-21T18:21:25;10.80;98.30
41882;DHT22;27562;47.524;12.404;2022-09-21T18:26:36;10.30;99.80
41882;DHT22;27562;47.524;12.404;2022-09-21T18:29:05;10.30;99.90
41882;DHT22;27562;47.524;12.404;2022-09-21T18:34:48;10.20;99.90
41882;DHT22;27562;47.524;12.404;2022-09-21T18:40:03;10.00;99.90
41882;DHT22;27562;47.524;12.404;2022-09-21T18:45:26;9.90;99.90
41882;DHT22;27562;47.524;12.404;2022-09-21T18:50:56;9.50;99.90
41882;DHT22;27562;47.524;12.404;2022-09-21T18:53:49;9.50;99.90
41882;DHT22;27562;47.524;12.404;2022-09-21T18:56:17;9.50;99.90
41882;DHT22;27562;47.524;12.404;2022-09-21T18:58:43;9.40;99.90
41882;DHT22;27562;47.524;12.404;2022-09-21T19:01:11;9.30;99.90
41882;DHT22;27562;47.524;12.404;2022-09-21T19:03:38;9.30;99.90
41882;DHT22;27562;47.524;12.404;2022-09-21T19:11:40;9.00;99.90
41882;DHT22;27562;47.524;12.404;2022-09-21T19:14:21;9.00;99.90
41882;DHT22;27562;47.524;12.404;2022-09-21T19:22:44;8.80;99.90
41882;DHT22;27562;47.524;12.404;2022-09-21T19:25:25;8.90;99.90
41882;DHT22;27562;47.524;12.404;2022-09-21T19:28:00;8.90;99.90
41882;DHT22;27562;47.524;12.404;2022-09-21T19:30:26;8.90;99.90
41882;DHT22;27562;47.524;12.404;2022-09-21T19:32:54;8.90;99.90
41882;DHT22;27562;47.524;12.404;2022-09-21T19:35:28;9.00;99.90
41882;DHT22;27562;47.524;12.404;2022-09-21T19:37:54;9.00;99.90
41882;DHT22;27562;47.524;12.404;2022-09-21T19:43:11;8.90;99.90
41882;DHT22;27562;47.524;12.404;2022-09-21T19:46:09;8.80;99.90
41882;DHT22;27562;47.524;12.404;2022-09-21T19:48:47;8.80;99.90
41882;DHT22;27562;47.524;12.404;2022-09-21T19:51:34;8.80;99.90
41882;DHT22;27562;47.524;12.404;2022-09-21T19:54:01;8.80;99.90
41882;DHT22;27562;47.524;12.404;2022-09-21T19:56:48;8.80;99.90
41882;DHT22;27562;47.524;12.404;2022-09-21T19:59:33;8.80;99.90